Time;durP1;ratioP1;P1;durP2;ratioP2;P2;SDS_P1;SDS_P2;PMS_P1;PMS_P2;Temp;Humidity;BMP_temperature;BMP_pressure;BME280_temperature;BME280_humidity;BME280_pressure;Samples;Min_cycle;Max_cycle;Signal;HPM_P1;HPM_P2
2023/05/01 00:01:58;;;;;;;;;34.00;30.00;;;;;-147.47;100.00;64613.53;5047777;28;45532;-75
2023/05/01 00:04:23;;;;;;;;;30.67;29.67;;;;;-147.47;100.00;64613.53;5065365;28;46640;-76
2023/05/01 00:06:49;;;;;;;;;25.67;25.67;;;;;-147.47;100.00;64613.53;5063757;28;45472;-76
2023/05/01 00:09:15;;;;;;;;;34.67;31.67;;;;;-147.47;100.00;64613.53;5058887;28;45658;-75
2023/05/01 00:11:40;;;;;;;;;34.67;31.33;;;;;-147.47;100.00;64613.53;5063148;28;45918;-76
2023/05/01 00:14:05;;;;;;;;;34.67;31.00;;;;;-147.47;100.00;64613.53;5054812;28;45850;-77
2023/05/01 00:16:31;;;;;;;;;33.67;28.67;;;;;-147.47;100.00;64613.53;5053019;28;45459;-74
2023/05/01 00:18:56;;;;;;;;;36.00;32.33;;;;;-147.47;100.00;64613.53;5058179;28;45477;-76
2023/05/01 00:21:21;;;;;;;;;33.33;30.67;;;;;-147.47;100.00;64613.53;5068174;28;45495;-75
2023/05/01 00:23:47;;;;;;;;;37.00;28.33;;;;;-147.47;100.00;64613.53;5047009;28;46839;-76
2023/05/01 00:26:12;;;;;;;;;36.00;33.33;;;;;-147.47;100.00;64613.53;5074334;28;45460;-76
2023/05/01 00:28:38;;;;;;;;;34.67;32.67;;;;;-147.47;100.00;64613.53;5062280;28;45764;-77
2023/05/01 00:31:03;;;;;;;;;34.00;29.33;;;;;-147.47;100.00;64613.53;5054725;28;45878;-76
2023/05/01 00:33:29;;;;;;;;;30.33;26.33;;;;;-147.47;100.00;64613.53;5071819;28;46160;-76
2023/05/01 00:35:54;;;;;;;;;24.67;22.67;;;;;-147.47;100.00;64613.53;5069873;28;45710;-75
2023/05/01 00:38:20;;;;;;;;;33.67;28.33;;;;;-147.47;100.00;64613.53;5072598;28;45824;-75
2023/05/01 00:40:46;;;;;;;;;33.00;28.67;;;;;-147.47;100.00;64613.53;5060191;28;45562;-76
2023/05/01 00:43:12;;;;;;;;;29.00;29.00;;;;;-147.47;100.00;64613.53;5055561;28;46202;-76
2023/05/01 00:45:44;;;;;;;;;34.00;30.67;;;;;-147.47;100.00;64613.53;5055753;28;45443;-76
2023/05/01 00:48:09;;;;;;;;;29.00;25.33;;;;;-147.47;100.00;64613.53;5055649;28;45750;-77
2023/05/01 00:50:35;;;;;;;;;29.67;27.00;;;;;-147.47;100.00;64613.53;5037833;28;46182;-76
2023/05/01 00:53:01;;;;;;;;;38.00;29.33;;;;;-147.47;100.00;64613.53;5060446;28;45614;-75
2023/05/01 00:55:27;;;;;;;;;36.00;28.67;;;;;-147.47;100.00;64613.53;5058398;28;45503;-76
2023/05/01 00:57:55;;;;;;;;;35.67;30.67;;;;;-147.47;100.00;64613.53;5055944;28;45421;-76
2023/05/01 01:00:23;;;;;;;;;36.00;29.33;;;;;-147.47;100.00;64613.53;5073428;28;45388;-74
2023/05/01 01:02:49;;;;;;;;;39.00;33.67;;;;;-147.47;100.00;64613.53;5071503;28;45362;-74
2023/05/01 01:05:15;;;;;;;;;31.33;30.33;;;;;-147.47;100.00;64613.53;5059583;28;46067;-75
2023/05/01 01:07:50;;;;;;;;;31.33;29.67;;;;;-147.47;100.00;64613.53;5073137;28;45857;-75
2023/05/01 01:10:33;;;;;;;;;36.00;30.33;;;;;-147.47;100.00;64613.53;5075706;28;45417;-75
2023/05/01 01:13:11;;;;;;;;;31.67;28.67;;;;;-147.47;100.00;64613.53;5070161;28;47097;-72
2023/05/01 01:15:51;;;;;;;;;34.67;30.67;;;;;-147.47;100.00;64613.53;5061830;28;45172;-74
2023/05/01 01:18:34;;;;;;;;;36.00;33.67;;;;;-147.47;100.00;64613.53;5046156;28;46475;-74
2023/05/01 01:21:19;;;;;;;;;38.00;31.33;;;;;-147.47;100.00;64613.53;5060242;28;46662;-75
2023/05/01 01:24:26;;;;;;;;;34.33;29.00;;;;;-147.47;100.00;64613.53;5058924;28;47310;-74
2023/05/01 01:27:29;;;;;;;;;33.67;30.67;;;;;-147.47;100.00;64613.53;5032359;28;45678;-74
2023/05/01 01:30:02;;;;;;;;;33.33;31.33;;;;;-147.47;100.00;64613.53;5052231;28;45787;-75
2023/05/01 01:32:46;;;;;;;;;33.00;30.00;;;;;-147.47;100.00;64613.53;5052635;28;45468;-74
2023/05/01 01:35:19;;;;;;;;;32.33;29.33;;;;;-147.47;100.00;64613.53;5043895;28;46427;-75
2023/05/01 01:37:56;;;;;;;;;34.00;30.67;;;;;-147.47;100.00;64613.53;5064701;28;45414;-75
2023/05/01 01:40:26;;;;;;;;;34.00;31.33;;;;;-147.47;100.00;64613.53;5051570;28;45859;-75
2023/05/01 01:43:01;;;;;;;;;32.67;26.00;;;;;-147.47;100.00;64613.53;5051062;28;45687;-75
2023/05/01 01:45:52;;;;;;;;;29.67;27.67;;;;;-147.47;100.00;64613.53;5057280;28;46232;-74
2023/05/01 01:48:25;;;;;;;;;29.00;27.00;;;;;-147.47;100.00;64613.53;5068537;28;45673;-74
2023/05/01 01:50:53;;;;;;;;;30.00;26.00;;;;;-147.47;100.00;64613.53;5039269;28;45913;-75
2023/05/01 01:53:22;;;;;;;;;32.00;25.00;;;;;-147.47;100.00;64613.53;5054724;28;46227;-76
2023/05/01 01:55:50;;;;;;;;;30.67;29.00;;;;;-147.47;100.00;64613.53;5059044;28;46106;-74
2023/05/01 01:58:23;;;;;;;;;31.00;25.33;;;;;-147.47;100.00;64613.53;5047628;28;45860;-75
2023/05/01 02:00:49;;;;;;;;;27.00;25.00;;;;;-147.47;100.00;64613.53;5050891;28;45477;-75
2023/05/01 02:03:16;;;;;;;;;28.00;25.67;;;;;-147.47;100.00;64613.53;5042426;28;45781;-75
2023/05/01 02:05:43;;;;;;;;;26.00;22.00;;;;;-147.47;100.00;64613.53;5050495;28;45700;-75
2023/05/01 02:08:11;;;;;;;;;28.00;24.67;;;;;-147.47;100.00;64613.53;5066228;28;46034;-74
2023/05/01 02:10:39;;;;;;;;;30.67;27.67;;;;;-147.47;100.00;64613.53;5062365;28;45922;-74
2023/05/01 02:13:05;;;;;;;;;28.00;24.67;;;;;-147.47;100.00;64613.53;5056813;28;45705;-75
2023/05/01 02:15:33;;;;;;;;;31.33;27.33;;;;;-147.47;100.00;64613.53;5052403;28;45752;-74
2023/05/01 02:18:03;;;;;;;;;28.67;25.00;;;;;-147.47;100.00;64613.53;5062861;28;45642;-75
2023/05/01 02:20:29;;;;;;;;;26.33;25.00;;;;;-147.47;100.00;64613.53;5069407;28;45691;-74
2023/05/01 02:22:57;;;;;;;;;23.00;22.00;;;;;-147.47;100.00;64613.53;5060647;28;46224;-74
2023/05/01 02:25:23;;;;;;;;;27.67;22.00;;;;;-147.47;100.00;64613.53;5066303;28;45781;-75
2023/05/01 02:28:12;;;;;;;;;28.67;24.33;;;;;-147.47;100.00;64613.53;5063771;28;45412;-74
2023/05/01 02:30:38;;;;;;;;;29.33;26.33;;;;;-147.47;100.00;64613.53;5058311;28;45598;-75
2023/05/01 02:33:06;;;;;;;;;29.33;25.67;;;;;-147.47;100.00;64613.53;5055487;28;45721;-75
2023/05/01 02:35:31;;;;;;;;;33.33;28.00;;;;;-147.47;100.00;64613.53;5035434;28;48021;-75
2023/05/01 02:37:57;;;;;;;;;24.00;22.00;;;;;-147.47;100.00;64613.53;5037722;28;45535;-74
2023/05/01 02:40:23;;;;;;;;;33.33;30.00;;;;;-147.47;100.00;64613.53;5064712;28;45689;-75
2023/05/01 02:42:51;;;;;;;;;28.00;27.67;;;;;-147.47;100.00;64613.53;5042484;28;46019;-74
2023/05/01 02:45:22;;;;;;;;;24.00;20.67;;;;;-147.47;100.00;64613.53;5051038;28;46898;-74
2023/05/01 02:47:51;;;;;;;;;25.33;22.33;;;;;-147.47;100.00;64613.53;5055710;28;45741;-75
2023/05/01 02:50:19;;;;;;;;;31.33;29.00;;;;;-147.47;100.00;64613.53;5054165;28;45866;-74
2023/05/01 02:52:45;;;;;;;;;26.00;24.67;;;;;-147.47;100.00;64613.53;5056000;28;45610;-75
2023/05/01 02:55:11;;;;;;;;;23.00;22.00;;;;;-147.47;100.00;64613.53;5059086;28;45756;-75
2023/05/01 02:57:37;;;;;;;;;24.00;22.67;;;;;-147.47;100.00;64613.53;5039937;28;45802;-76
2023/05/01 03:00:03;;;;;;;;;22.33;21.33;;;;;-147.47;100.00;64613.53;5052982;28;45962;-75
2023/05/01 03:02:28;;;;;;;;;24.00;22.00;;;;;-147.47;100.00;64613.53;5053190;28;45910;-74
2023/05/01 03:04:54;;;;;;;;;25.67;22.33;;;;;-147.47;100.00;64613.53;5047871;28;46340;-75
2023/05/01 03:07:19;;;;;;;;;21.67;20.33;;;;;-147.47;100.00;64613.53;5048315;28;45737;-73
2023/05/01 03:09:44;;;;;;;;;23.33;20.67;;;;;-147.47;100.00;64613.53;5062802;28;45884;-75
2023/05/01 03:12:10;;;;;;;;;22.67;22.00;;;;;-147.47;100.00;64613.53;5064133;28;45688;-74
2023/05/01 03:14:35;;;;;;;;;26.00;24.00;;;;;-147.47;100.00;64613.53;5057442;28;46322;-74
2023/05/01 03:17:01;;;;;;;;;24.67;22.33;;;;;-147.47;100.00;64613.53;5041947;28;45767;-74
2023/05/01 03:19:26;;;;;;;;;22.00;20.00;;;;;-147.47;100.00;64613.53;5063696;28;45422;-75
2023/05/01 03:21:52;;;;;;;;;31.67;27.00;;;;;-147.47;100.00;64613.53;5067791;28;45841;-75
2023/05/01 03:24:17;;;;;;;;;24.67;22.33;;;;;-147.47;100.00;64613.53;5066140;28;46209;-75
2023/05/01 03:26:43;;;;;;;;;26.00;24.00;;;;;-147.47;100.00;64613.53;5057489;28;45770;-75
2023/05/01 03:29:08;;;;;;;;;22.67;22.67;;;;;-147.47;100.00;64613.53;5054535;28;45451;-75
2023/05/01 03:31:34;;;;;;;;;27.00;21.33;;;;;-147.47;100.00;64613.53;5053562;28;46040;-75
2023/05/01 03:34:00;;;;;;;;;29.33;26.00;;;;;-147.47;100.00;64613.53;5072025;28;45764;-76
2023/05/01 03:36:26;;;;;;;;;28.67;26.00;;;;;-147.47;100.00;64613.53;5055977;28;45814;-75
2023/05/01 03:38:52;;;;;;;;;25.00;24.67;;;;;-147.47;100.00;64613.53;5053703;28;45766;-75
2023/05/01 03:41:17;;;;;;;;;22.67;21.33;;;;;-147.47;100.00;64613.53;5052580;28;45474;-74
2023/05/01 03:43:43;;;;;;;;;28.67;27.67;;;;;-147.47;100.00;64613.53;5057872;28;45437;-75
2023/05/01 03:46:08;;;;;;;;;31.00;28.00;;;;;-147.47;100.00;64613.53;5047137;28;45681;-74
2023/05/01 03:48:34;;;;;;;;;27.67;26.67;;;;;-147.47;100.00;64613.53;5068263;28;46082;-78
2023/05/01 03:50:59;;;;;;;;;32.67;27.67;;;;;-147.47;100.00;64613.53;5057455;28;45821;-72
2023/05/01 03:53:24;;;;;;;;;30.00;27.00;;;;;-147.47;100.00;64613.53;5052608;28;46467;-78
2023/05/01 03:55:50;;;;;;;;;31.00;27.33;;;;;-147.47;100.00;64613.53;5052738;28;45408;-79
2023/05/01 03:58:16;;;;;;;;;30.00;26.33;;;;;-147.47;100.00;64613.53;5036771;28;45559;-78
2023/05/01 04:00:41;;;;;;;;;28.00;26.00;;;;;-147.47;100.00;64613.53;5043770;28;46038;-78
2023/05/01 04:03:15;;;;;;;;;29.00;26.33;;;;;-147.47;100.00;64613.53;5065244;28;47077;-80
2023/05/01 04:05:46;;;;;;;;;34.33;29.67;;;;;-147.47;100.00;64613.53;5056406;28;45304;-79
2023/05/01 04:08:14;;;;;;;;;33.67;28.67;;;;;-147.47;100.00;64613.53;5030689;28;45640;-80
2023/05/01 04:10:40;;;;;;;;;32.67;29.67;;;;;-147.47;100.00;64613.53;5033322;28;45721;-81
2023/05/01 04:13:05;;;;;;;;;37.33;33.00;;;;;-147.47;100.00;64613.53;5051326;28;46364;-80
2023/05/01 04:15:31;;;;;;;;;33.67;30.00;;;;;-147.47;100.00;64613.53;5037762;28;45419;-79
2023/05/01 04:17:58;;;;;;;;;39.00;31.33;;;;;-147.47;100.00;64613.53;5045395;28;46128;-78
2023/05/01 04:20:27;;;;;;;;;39.67;34.33;;;;;-147.47;100.00;64613.53;5039256;28;45940;-79
2023/05/01 04:22:54;;;;;;;;;35.00;30.67;;;;;-147.47;100.00;64613.53;5057014;28;46222;-80
2023/05/01 04:25:32;;;;;;;;;33.33;30.33;;;;;-147.47;100.00;64613.53;5057117;28;45439;-81
2023/05/01 04:28:03;;;;;;;;;38.33;32.00;;;;;-147.47;100.00;64613.53;5033881;28;45612;-80
2023/05/01 04:30:35;;;;;;;;;37.33;31.00;;;;;-147.47;100.00;64613.53;5033949;28;45753;-80
2023/05/01 04:33:27;;;;;;;;;34.67;30.33;;;;;-147.47;100.00;64613.53;5064258;28;46584;-82
2023/05/01 04:36:07;;;;;;;;;37.33;33.33;;;;;-147.47;100.00;64613.53;5067364;28;45305;-82
2023/05/01 04:38:37;;;;;;;;;34.67;30.00;;;;;-147.47;100.00;64613.53;5064078;28;45467;-82
2023/05/01 04:44:10;;;;;;;;;40.00;33.00;;;;;-147.47;100.00;64613.53;5045987;28;45528;-77
2023/05/01 04:46:36;;;;;;;;;48.33;37.67;;;;;-147.47;100.00;64613.53;5052535;28;45826;-77
2023/05/01 04:49:01;;;;;;;;;37.67;33.33;;;;;-147.47;100.00;64613.53;5051967;28;45431;-76
2023/05/01 04:51:27;;;;;;;;;45.67;35.33;;;;;-147.47;100.00;64613.53;5058684;28;45904;-76
2023/05/01 04:53:54;;;;;;;;;42.33;34.67;;;;;-147.47;100.00;64613.53;5064531;28;45465;-78
2023/05/01 04:56:20;;;;;;;;;44.33;35.33;;;;;-147.47;100.00;64613.53;5057364;28;45655;-77
2023/05/01 04:58:45;;;;;;;;;42.67;35.33;;;;;-147.47;100.00;64613.53;5055515;28;45668;-75
2023/05/01 05:01:11;;;;;;;;;48.67;37.67;;;;;-147.47;100.00;64613.53;5037904;28;47174;-76
2023/05/01 05:03:36;;;;;;;;;41.33;35.67;;;;;-147.47;100.00;64613.53;5055199;28;45990;-76
2023/05/01 05:06:02;;;;;;;;;45.00;33.00;;;;;-147.47;100.00;64613.53;5053677;28;45793;-76
2023/05/01 05:08:28;;;;;;;;;46.33;36.00;;;;;-147.47;100.00;64613.53;5051515;28;45816;-76
2023/05/01 05:11:01;;;;;;;;;45.33;36.00;;;;;-147.47;100.00;64613.53;5035383;28;46000;-76
2023/05/01 05:13:27;;;;;;;;;45.00;38.00;;;;;-147.47;100.00;64613.53;5033121;28;47336;-77
2023/05/01 05:15:53;;;;;;;;;43.33;35.67;;;;;-147.47;100.00;64613.53;5047316;28;45521;-76
2023/05/01 05:18:19;;;;;;;;;48.33;34.33;;;;;-147.47;100.00;64613.53;5049476;28;45823;-77
2023/05/01 05:20:45;;;;;;;;;43.67;34.67;;;;;-147.47;100.00;64613.53;5056446;28;45629;-78
2023/05/01 05:23:11;;;;;;;;;50.00;39.33;;;;;-147.47;100.00;64613.53;5061848;28;45861;-76
2023/05/01 05:25:36;;;;;;;;;51.67;41.33;;;;;-147.47;100.00;64613.53;5049412;28;45621;-77
2023/05/01 05:28:02;;;;;;;;;50.00;38.33;;;;;-147.47;100.00;64613.53;5058627;28;45490;-77
2023/05/01 05:30:28;;;;;;;;;52.33;40.33;;;;;-147.47;100.00;64613.53;5053551;28;45786;-75
2023/05/01 05:32:54;;;;;;;;;47.67;40.67;;;;;-147.47;100.00;64613.53;5054206;28;46103;-72
2023/05/01 05:35:19;;;;;;;;;51.33;41.33;;;;;-147.47;100.00;64613.53;5038619;28;45840;-72
2023/05/01 05:37:45;;;;;;;;;48.33;38.67;;;;;-147.47;100.00;64613.53;5062428;28;45777;-73
2023/05/01 05:40:11;;;;;;;;;49.00;41.33;;;;;-147.47;100.00;64613.53;5068136;28;45813;-73
2023/05/01 05:42:36;;;;;;;;;47.33;39.67;;;;;-147.47;100.00;64613.53;5063610;28;45793;-75
2023/05/01 05:45:02;;;;;;;;;50.00;39.33;;;;;-147.47;100.00;64613.53;5049535;28;45509;-75
2023/05/01 05:47:27;;;;;;;;;39.33;36.33;;;;;-147.47;100.00;64613.53;5052095;28;45561;-73
2023/05/01 05:49:54;;;;;;;;;54.00;41.67;;;;;-147.47;100.00;64613.53;5051596;28;47182;-72
2023/05/01 05:52:20;;;;;;;;;48.33;36.67;;;;;-147.47;100.00;64613.53;5051802;28;45800;-72
2023/05/01 05:54:45;;;;;;;;;51.00;40.00;;;;;-147.47;100.00;64613.53;5032377;28;45837;-73
2023/05/01 05:57:11;;;;;;;;;58.00;46.00;;;;;-147.47;100.00;64613.53;5050218;28;45823;-73
2023/05/01 05:59:36;;;;;;;;;53.33;42.00;;;;;-147.47;100.00;64613.53;5050828;28;45732;-76
2023/05/01 06:02:03;;;;;;;;;52.33;40.00;;;;;-147.47;100.00;64613.53;5050267;28;46078;-75
2023/05/01 06:04:29;;;;;;;;;58.67;40.00;;;;;-147.47;100.00;64613.53;5046786;28;45822;-77
2023/05/01 06:06:54;;;;;;;;;55.67;44.67;;;;;-147.47;100.00;64613.53;5063068;28;45686;-74
2023/05/01 06:09:20;;;;;;;;;55.67;44.00;;;;;-147.47;100.00;64613.53;5060428;28;45866;-76
2023/05/01 06:11:46;;;;;;;;;53.00;39.33;;;;;-147.47;100.00;64613.53;5051057;28;45833;-76
2023/05/01 06:14:12;;;;;;;;;53.00;41.33;;;;;-147.47;100.00;64613.53;5060757;28;45882;-76
2023/05/01 06:16:37;;;;;;;;;53.00;42.00;;;;;-147.47;100.00;64613.53;5055757;28;45368;-85
2023/05/01 06:19:03;;;;;;;;;40.33;35.00;;;;;-147.47;100.00;64613.53;5057451;28;45347;-75
2023/05/01 06:21:30;;;;;;;;;53.67;42.67;;;;;-147.47;100.00;64613.53;5048971;28;46182;-75
2023/05/01 06:23:56;;;;;;;;;55.00;43.67;;;;;-147.47;100.00;64613.53;5060574;28;45534;-76
2023/05/01 06:26:22;;;;;;;;;39.33;36.67;;;;;-147.47;100.00;64613.53;5046709;28;45765;-75
2023/05/01 06:28:47;;;;;;;;;51.67;41.00;;;;;-147.47;100.00;64613.53;5052719;28;45954;-76
2023/05/01 06:31:13;;;;;;;;;53.67;40.67;;;;;-147.47;100.00;64613.53;5055808;28;46643;-76
2023/05/01 06:33:38;;;;;;;;;42.00;34.67;;;;;-147.47;100.00;64613.53;5045784;28;45603;-75
2023/05/01 06:36:04;;;;;;;;;51.33;38.67;;;;;-147.47;100.00;64613.53;5031723;28;46052;-76
2023/05/01 06:38:31;;;;;;;;;44.00;37.33;;;;;-147.47;100.00;64613.53;5045310;28;45498;-75
2023/05/01 06:40:57;;;;;;;;;50.67;39.67;;;;;-147.47;100.00;64613.53;5030575;28;48533;-77
2023/05/01 06:43:26;;;;;;;;;51.67;40.33;;;;;-147.47;100.00;64613.53;5050089;28;45754;-77
2023/05/01 06:45:52;;;;;;;;;46.67;36.33;;;;;-147.47;100.00;64613.53;5039164;28;45553;-75
2023/05/01 06:48:19;;;;;;;;;53.00;40.33;;;;;-147.47;100.00;64613.53;5066339;28;46260;-78
2023/05/01 06:50:45;;;;;;;;;44.00;37.00;;;;;-147.47;100.00;64613.53;5030410;28;46548;-80
2023/05/01 06:53:10;;;;;;;;;40.67;30.33;;;;;-147.47;100.00;64613.53;5049537;28;45693;-75
2023/05/01 06:55:37;;;;;;;;;44.67;36.33;;;;;-147.47;100.00;64613.53;5026271;28;45452;-77
2023/05/01 06:58:03;;;;;;;;;47.00;37.00;;;;;-147.47;100.00;64613.53;5048599;28;45744;-78
2023/05/01 07:00:29;;;;;;;;;46.67;37.33;;;;;-147.47;100.00;64613.53;5050753;28;45410;-75
2023/05/01 07:02:54;;;;;;;;;37.33;32.67;;;;;-147.47;100.00;64613.53;5030915;28;45809;-76
2023/05/01 07:05:20;;;;;;;;;42.67;36.00;;;;;-147.47;100.00;64613.53;5045011;28;45869;-76
2023/05/01 07:07:45;;;;;;;;;40.33;36.00;;;;;-147.47;100.00;64613.53;5048341;28;45419;-77
2023/05/01 07:10:11;;;;;;;;;42.67;34.67;;;;;-147.47;100.00;64613.53;5032038;28;46050;-76
2023/05/01 07:12:36;;;;;;;;;44.33;35.00;;;;;-147.47;100.00;64613.53;5048683;28;45404;-76
2023/05/01 07:15:02;;;;;;;;;42.00;34.33;;;;;-147.47;100.00;64613.53;5042608;28;45851;-76
2023/05/01 07:17:28;;;;;;;;;38.33;32.67;;;;;-147.47;100.00;64613.53;5051300;28;45944;-77
2023/05/01 07:19:53;;;;;;;;;34.00;29.00;;;;;-147.47;100.00;64613.53;5054691;28;45501;-77
2023/05/01 07:22:19;;;;;;;;;35.67;33.00;;;;;-147.47;100.00;64613.53;5055671;28;45451;-78
2023/05/01 07:24:44;;;;;;;;;36.67;32.00;;;;;-147.47;100.00;64613.53;5057296;28;45419;-76
2023/05/01 07:27:10;;;;;;;;;29.00;27.33;;;;;-147.47;100.00;64613.53;5058105;28;45955;-82
2023/05/01 07:29:37;;;;;;;;;35.33;28.67;;;;;-147.47;100.00;64613.53;5053657;28;46699;-78
2023/05/01 07:32:05;;;;;;;;;29.00;26.00;;;;;-147.47;100.00;64613.53;5059197;28;45641;-82
2023/05/01 07:34:30;;;;;;;;;25.67;24.00;;;;;-147.47;100.00;64613.53;5054486;28;45611;-78
2023/05/01 07:36:56;;;;;;;;;25.00;19.33;;;;;-147.47;100.00;64613.53;5055396;28;45477;-75
2023/05/01 07:39:22;;;;;;;;;19.67;18.33;;;;;-147.47;100.00;64613.53;5044900;28;45951;-74
2023/05/01 07:41:47;;;;;;;;;25.33;22.67;;;;;-147.47;100.00;64613.53;5070039;28;45747;-75
2023/05/01 07:44:13;;;;;;;;;22.67;20.00;;;;;-147.47;100.00;64613.53;5065312;28;45512;-75
2023/05/01 07:46:38;;;;;;;;;22.33;20.00;;;;;-147.47;100.00;64613.53;5070241;28;45527;-77
2023/05/01 07:49:04;;;;;;;;;29.33;19.33;;;;;-147.47;100.00;64613.53;5065748;28;46332;-77
2023/05/01 07:51:30;;;;;;;;;20.00;18.33;;;;;-147.47;100.00;64613.53;5061956;28;45888;-78
2023/05/01 07:53:56;;;;;;;;;22.33;19.67;;;;;-147.47;100.00;64613.53;5060205;28;45616;-77
2023/05/01 07:56:21;;;;;;;;;15.00;14.33;;;;;-147.47;100.00;64613.53;5066403;28;45561;-76
2023/05/01 07:58:47;;;;;;;;;18.67;17.67;;;;;-147.47;100.00;64613.53;5055059;28;45960;-77
2023/05/01 08:01:12;;;;;;;;;22.67;18.67;;;;;-147.47;100.00;64613.53;5067885;28;45654;-76
2023/05/01 08:03:38;;;;;;;;;21.00;16.67;;;;;-147.47;100.00;64613.53;5067934;28;46022;-76
2023/05/01 08:06:03;;;;;;;;;18.00;15.33;;;;;-147.47;100.00;64613.53;5071763;28;45919;-77
2023/05/01 08:08:29;;;;;;;;;24.67;19.67;;;;;-147.47;100.00;64613.53;5067272;28;45840;-76
2023/05/01 08:10:55;;;;;;;;;18.00;17.67;;;;;-147.47;100.00;64613.53;5039266;28;45452;-76
2023/05/01 08:13:20;;;;;;;;;26.00;22.00;;;;;-147.47;100.00;64613.53;5054085;28;46073;-72
2023/05/01 08:15:46;;;;;;;;;21.33;19.67;;;;;-147.47;100.00;64613.53;5057281;28;45426;-76
2023/05/01 08:18:18;;;;;;;;;25.67;22.00;;;;;-147.47;100.00;64613.53;5053648;28;45745;-75
2023/05/01 08:20:44;;;;;;;;;30.33;19.33;;;;;-147.47;100.00;64613.53;5032715;28;45728;-75
2023/05/01 08:23:09;;;;;;;;;28.00;23.00;;;;;-147.47;100.00;64613.53;5051279;28;45913;-74
2023/05/01 08:25:35;;;;;;;;;24.00;18.00;;;;;-147.47;100.00;64613.53;5054019;28;45610;-75
2023/05/01 08:28:00;;;;;;;;;26.33;21.67;;;;;-147.47;100.00;64613.53;5038031;28;47236;-76
2023/05/01 08:30:25;;;;;;;;;26.67;26.67;;;;;-147.47;100.00;64613.53;5045514;28;45727;-74
2023/05/01 08:32:51;;;;;;;;;46.67;37.67;;;;;-147.47;100.00;64613.53;5033170;28;46046;-76
2023/05/01 08:35:16;;;;;;;;;28.33;23.67;;;;;-147.47;100.00;64613.53;5037875;28;45631;-76
2023/05/01 08:37:43;;;;;;;;;35.33;28.33;;;;;-147.47;100.00;64613.53;5048858;28;45521;-77
2023/05/01 08:40:09;;;;;;;;;25.00;24.00;;;;;-147.47;100.00;64613.53;5070864;28;45624;-75
2023/05/01 08:42:36;;;;;;;;;45.67;33.67;;;;;-147.47;100.00;64613.53;5057312;28;45880;-74
2023/05/01 08:45:03;;;;;;;;;26.33;24.00;;;;;-147.47;100.00;64613.53;5067567;28;45450;-74
2023/05/01 08:47:29;;;;;;;;;24.33;22.33;;;;;-147.47;100.00;64613.53;5055628;28;45752;-74
2023/05/01 08:49:56;;;;;;;;;22.33;15.33;;;;;-147.47;100.00;64613.53;5053612;28;45377;-74
2023/05/01 08:52:22;;;;;;;;;21.00;17.67;;;;;-147.47;100.00;64613.53;5037820;28;45444;-73
2023/05/01 08:54:50;;;;;;;;;21.00;18.00;;;;;-147.47;100.00;64613.53;5054106;28;45522;-74
2023/05/01 08:57:16;;;;;;;;;31.33;23.00;;;;;-147.47;100.00;64613.53;5050172;28;45745;-75
2023/05/01 08:59:43;;;;;;;;;20.00;18.33;;;;;-147.47;100.00;64613.53;5035659;28;45391;-75
2023/05/01 09:02:09;;;;;;;;;21.00;17.67;;;;;-147.47;100.00;64613.53;5049303;28;45511;-76
2023/05/01 09:04:38;;;;;;;;;23.33;20.67;;;;;-147.47;100.00;64613.53;5050904;28;45504;-75
2023/05/01 09:07:04;;;;;;;;;21.00;17.33;;;;;-147.47;100.00;64613.53;5052628;28;46599;-76
2023/05/01 09:09:30;;;;;;;;;23.00;19.33;;;;;-147.47;100.00;64613.53;5052610;28;45853;-76
2023/05/01 09:12:19;;;;;;;;;21.67;19.33;;;;;-147.47;100.00;64613.53;5043339;28;45767;-75
2023/05/01 09:14:45;;;;;;;;;19.00;16.67;;;;;-147.47;100.00;64613.53;5056836;28;45730;-77
2023/05/01 09:17:11;;;;;;;;;25.67;18.00;;;;;-147.47;100.00;64613.53;5045202;28;46337;-76
2023/05/01 09:19:37;;;;;;;;;21.00;18.00;;;;;-147.47;100.00;64613.53;5058498;28;45477;-76
2023/05/01 09:22:03;;;;;;;;;18.33;17.33;;;;;-147.47;100.00;64613.53;5065717;28;45804;-76
2023/05/01 09:24:28;;;;;;;;;22.67;15.67;;;;;-147.47;100.00;64613.53;5062987;28;45827;-76
2023/05/01 09:26:56;;;;;;;;;14.67;14.00;;;;;-147.47;100.00;64613.53;5050866;28;45590;-75
2023/05/01 09:29:38;;;;;;;;;14.67;14.67;;;;;-147.47;100.00;64613.53;5050958;28;45771;-77
2023/05/01 09:32:13;;;;;;;;;17.67;14.67;;;;;-147.47;100.00;64613.53;5040606;28;45909;-77
2023/05/01 09:34:39;;;;;;;;;18.67;14.00;;;;;-147.47;100.00;64613.53;5050719;28;45589;-76
2023/05/01 09:37:05;;;;;;;;;16.67;14.33;;;;;-147.47;100.00;64613.53;5060937;28;46756;-76
2023/05/01 09:39:31;;;;;;;;;13.33;13.00;;;;;-147.47;100.00;64613.53;5048207;28;45620;-76
2023/05/01 09:41:56;;;;;;;;;16.00;13.33;;;;;-147.47;100.00;64613.53;5030938;28;45793;-76
2023/05/01 09:44:22;;;;;;;;;17.33;14.67;;;;;-147.47;100.00;64613.53;5035663;28;45592;-75
2023/05/01 09:46:48;;;;;;;;;12.00;10.67;;;;;-147.47;100.00;64613.53;5036150;28;46442;-77
2023/05/01 09:49:14;;;;;;;;;14.00;12.67;;;;;-147.47;100.00;64613.53;5053228;28;45615;-76
2023/05/01 09:51:39;;;;;;;;;16.00;12.33;;;;;-147.47;100.00;64613.53;5054673;28;45550;-75
2023/05/01 09:54:19;;;;;;;;;8.33;7.00;;;;;-147.47;100.00;64613.53;5050161;28;46259;-77
2023/05/01 09:56:47;;;;;;;;;7.33;6.67;;;;;-147.47;100.00;64613.53;5052937;28;45510;-77
2023/05/01 09:59:18;;;;;;;;;7.67;7.67;;;;;-147.47;100.00;64613.53;5043067;28;45769;-76
2023/05/01 10:01:45;;;;;;;;;7.33;6.33;;;;;-147.47;100.00;64613.53;5048451;28;45617;-77
2023/05/01 10:04:11;;;;;;;;;5.00;5.00;;;;;-147.47;100.00;64613.53;5053362;28;45531;-77
2023/05/01 10:06:38;;;;;;;;;8.67;7.67;;;;;-147.47;100.00;64613.53;5054040;28;45955;-77
2023/05/01 10:09:05;;;;;;;;;9.33;7.33;;;;;-147.47;100.00;64613.53;5057941;28;45893;-76
2023/05/01 10:11:50;;;;;;;;;11.33;10.67;;;;;-147.47;100.00;64613.53;5056742;28;45465;-77
2023/05/01 10:14:16;;;;;;;;;13.33;8.67;;;;;-147.47;100.00;64613.53;5034196;28;45784;-77
2023/05/01 10:16:42;;;;;;;;;15.00;12.33;;;;;-147.47;100.00;64613.53;5063298;28;45907;-78
2023/05/01 10:19:09;;;;;;;;;17.33;12.00;;;;;-147.47;100.00;64613.53;5049947;28;45546;-77
2023/05/01 10:21:35;;;;;;;;;10.00;9.00;;;;;-147.47;100.00;64613.53;5045669;28;45741;-78
2023/05/01 10:24:06;;;;;;;;;13.67;10.67;;;;;-147.47;100.00;64613.53;5038720;28;45875;-76
2023/05/01 10:26:35;;;;;;;;;15.67;14.00;;;;;-147.47;100.00;64613.53;5043710;28;48191;-76
2023/05/01 10:29:02;;;;;;;;;15.00;9.33;;;;;-147.47;100.00;64613.53;5047258;28;45450;-75
2023/05/01 10:31:28;;;;;;;;;17.00;13.67;;;;;-147.47;100.00;64613.53;5021497;28;46501;-75
2023/05/01 10:33:55;;;;;;;;;17.33;16.33;;;;;-147.47;100.00;64613.53;5059097;28;45388;-73
2023/05/01 10:36:36;;;;;;;;;19.67;15.00;;;;;-147.47;100.00;64613.53;5053457;28;45464;-75
2023/05/01 10:39:02;;;;;;;;;18.33;17.33;;;;;-147.47;100.00;64613.53;5069079;28;45385;-75
2023/05/01 10:42:03;;;;;;;;;16.67;15.33;;;;;-147.47;100.00;64613.53;5063589;28;45913;-74
2023/05/01 10:44:29;;;;;;;;;26.00;18.33;;;;;-147.47;100.00;64613.53;5058795;28;45716;-74
2023/05/01 10:46:55;;;;;;;;;18.00;16.67;;;;;-147.47;100.00;64613.53;5060545;28;46076;-75
2023/05/01 10:49:21;;;;;;;;;15.67;14.67;;;;;-147.47;100.00;64613.53;5058491;28;45498;-77
2023/05/01 10:51:56;;;;;;;;;13.33;12.00;;;;;-147.47;100.00;64613.53;5062513;28;45902;-75
2023/05/01 10:54:24;;;;;;;;;21.67;18.33;;;;;-147.47;100.00;64613.53;5068409;28;45396;-74
2023/05/01 10:56:52;;;;;;;;;13.67;12.33;;;;;-147.47;100.00;64613.53;5047552;28;45800;-73
2023/05/01 10:59:18;;;;;;;;;12.33;10.33;;;;;-147.47;100.00;64613.53;5056007;28;45769;-74
2023/05/01 11:01:46;;;;;;;;;18.67;13.33;;;;;-147.47;100.00;64613.53;5046926;28;45998;-75